Friday, November 15, 2019, 5:58 AM EST
Back to Local

KMTP, Montauk Airport

Location: Montauk, NY, United States Lat: 41.067
Local Time: 5:58 AM EST (10:58 GMT) Lon: -71.917
Time Zone: US/Eastern Elev: 6 ft

Show me the last for .
Show Decoded

2019-11-15 04:54 METAR KMTP 150954Z AUTO 26005KT 07/00 A3023 RMK AO1 SLP238 T00720000 =
2019-11-15 03:54 METAR KMTP 150854Z AUTO 26007KT 07/M03 A3023 RMK AO1 SLP238 T00721028 56014 =
2019-11-15 02:54 METAR KMTP 150754Z AUTO 26010G16KT 08/M01 A3024 RMK AO1 SLP241 T00781011 =
2019-11-15 01:54 METAR KMTP 150654Z AUTO 27011G18KT 08/M01 A3026 RMK AO1 SLP247 T00781011 =
2019-11-15 00:54 METAR KMTP 150554Z AUTO 26009G20KT 08/M01 A3028 RMK AO1 SLP252 T00781006 10089
                 20056 58007 =
2019-11-14 23:54 METAR KMTP 150454Z AUTO 26007KT 08/03 A3029 RMK AO1 SLP257 T00830028 400941039 =
2019-11-14 22:54 METAR KMTP 150354Z AUTO 26009KT 08/04 A3030 RMK AO1 SLP259 T00830039 =
2019-11-14 21:54 METAR KMTP 150254Z AUTO 27003KT 07/03 A3030 RMK AO1 SLP258 T00720033 55011 =
2019-11-14 20:54 METAR KMTP 150154Z AUTO 00000KT 08/04 A3029 RMK AO1 SLP258 T00780039 =
2019-11-14 19:54 METAR KMTP 150054Z AUTO 26003KT 08/03 A3031 RMK AO1 SLP262 T00780033 =
2019-11-14 18:54 METAR KMTP 142354Z AUTO 25005KT 08/03 A3033 RMK AO1 SLP269 T00780028 10094 20078
                 58006 =
2019-11-14 17:54 METAR KMTP 142254Z AUTO 23005KT 09/02 A3034 RMK AO1 SLP272 T00940022 =
2019-11-14 16:54 METAR KMTP 142154Z AUTO 21009G17KT 09/01 A3034 RMK AO1 SLP273 T00940011 =
2019-11-14 15:54 METAR KMTP 142054Z AUTO 20008G15KT 09/02 A3035 RMK AO1 SLP275 T00940017 56018 =
2019-11-14 14:54 METAR KMTP 141954Z AUTO 21009G15KT 09/02 A3036 RMK AO1 SLP280 T00890017 =
2019-11-14 13:54 METAR KMTP 141854Z AUTO 20009G14KT 09/01 A3038 RMK AO1 SLP288 T00890006 =
2019-11-14 12:54 METAR KMTP 141754Z AUTO 19008KT 08/M01 A3040 RMK AO1 SLP294 T00781006 10078
                 21017 58021 =
2019-11-14 11:54 METAR KMTP 141654Z AUTO 21008KT 07/M01 A3042 RMK AO1 SLP301 T00721011 =
2019-11-14 10:54 METAR KMTP 141554Z AUTO 20008G14KT 07/M02 A3045 RMK AO1 SLP310 T00671017 =
2019-11-14 09:54 METAR KMTP 141454Z AUTO 18006KT 06/M02 A3046 RMK AO1 SLP315 T00611017 58001 =
2019-11-14 08:54 METAR KMTP 141354Z AUTO VRB05KT 04/M02 A3047 RMK AO1 SLP318 T00441022 $ =
2019-11-14 07:54 METAR KMTP 141254Z AUTO 00000KT 01/M04 A3047 RMK AO1 SLP316 T00111039 $ =
2019-11-14 06:54 METAR KMTP 141154Z AUTO 00000KT M01/M06 A3046 RMK AO1 SLP315 T10111061 11011
                 21039 51001 $ =

Support USWX by starting your Amazon purchase here.